sensor_id;sensor_type;location;lat;lon;timestamp;P1;durP1;ratioP1;P2;durP2;ratioP2
71253;SDS011;59019;47.638;18.966;2024-02-04T00:01:26;6.70;;;3.33;;
71253;SDS011;59019;47.638;18.966;2024-02-04T00:03:52;6.93;;;3.80;;
71253;SDS011;59019;47.638;18.966;2024-02-04T00:06:19;5.68;;;2.70;;
71253;SDS011;59019;47.638;18.966;2024-02-04T00:08:45;4.57;;;2.60;;
71253;SDS011;59019;47.638;18.966;2024-02-04T00:11:15;6.53;;;3.05;;
71253;SDS011;59019;47.638;18.966;2024-02-04T00:13:42;3.80;;;1.60;;
71253;SDS011;59019;47.638;18.966;2024-02-04T00:16:08;7.80;;;4.10;;
71253;SDS011;59019;47.638;18.966;2024-02-04T00:18:35;3.80;;;1.57;;
71253;SDS011;59019;47.638;18.966;2024-02-04T00:21:02;5.67;;;2.47;;
71253;SDS011;59019;47.638;18.966;2024-02-04T00:23:28;4.85;;;2.85;;
71253;SDS011;59019;47.638;18.966;2024-02-04T00:25:55;5.80;;;2.75;;
71253;SDS011;59019;47.638;18.966;2024-02-04T00:28:21;5.30;;;2.42;;
71253;SDS011;59019;47.638;18.966;2024-02-04T00:30:47;5.85;;;2.50;;
71253;SDS011;59019;47.638;18.966;2024-02-04T00:33:15;5.07;;;2.40;;
71253;SDS011;59019;47.638;18.966;2024-02-04T00:35:42;5.45;;;2.83;;
71253;SDS011;59019;47.638;18.966;2024-02-04T00:38:08;5.13;;;2.33;;
71253;SDS011;59019;47.638;18.966;2024-02-04T00:40:38;5.35;;;2.22;;
71253;SDS011;59019;47.638;18.966;2024-02-04T00:43:05;4.80;;;2.15;;
71253;SDS011;59019;47.638;18.966;2024-02-04T00:45:31;6.55;;;3.22;;
71253;SDS011;59019;47.638;18.966;2024-02-04T00:47:57;5.45;;;2.47;;
71253;SDS011;59019;47.638;18.966;2024-02-04T00:50:23;4.10;;;1.70;;
71253;SDS011;59019;47.638;18.966;2024-02-04T00:52:49;7.93;;;3.22;;
71253;SDS011;59019;47.638;18.966;2024-02-04T00:55:19;6.93;;;2.73;;
71253;SDS011;59019;47.638;18.966;2024-02-04T00:57:45;5.43;;;2.53;;
71253;SDS011;59019;47.638;18.966;2024-02-04T01:00:11;8.07;;;4.35;;
71253;SDS011;59019;47.638;18.966;2024-02-04T01:02:45;8.00;;;3.20;;
71253;SDS011;59019;47.638;18.966;2024-02-04T01:05:14;10.13;;;3.77;;
71253;SDS011;59019;47.638;18.966;2024-02-04T01:07:40;7.30;;;3.20;;
71253;SDS011;59019;47.638;18.966;2024-02-04T01:10:07;6.63;;;2.60;;
71253;SDS011;59019;47.638;18.966;2024-02-04T01:12:34;6.32;;;3.47;;
71253;SDS011;59019;47.638;18.966;2024-02-04T01:15:01;7.15;;;3.63;;
71253;SDS011;59019;47.638;18.966;2024-02-04T01:17:30;5.67;;;1.90;;
71253;SDS011;59019;47.638;18.966;2024-02-04T01:19:57;5.22;;;2.10;;
71253;SDS011;59019;47.638;18.966;2024-02-04T01:22:24;5.07;;;2.78;;
71253;SDS011;59019;47.638;18.966;2024-02-04T01:24:52;4.85;;;2.60;;
71253;SDS011;59019;47.638;18.966;2024-02-04T01:27:19;8.65;;;3.20;;
71253;SDS011;59019;47.638;18.966;2024-02-04T01:29:45;4.67;;;2.10;;
71253;SDS011;59019;47.638;18.966;2024-02-04T01:32:12;8.80;;;3.53;;
71253;SDS011;59019;47.638;18.966;2024-02-04T01:34:38;10.13;;;4.13;;
71253;SDS011;59019;47.638;18.966;2024-02-04T01:37:08;10.65;;;3.95;;
71253;SDS011;59019;47.638;18.966;2024-02-04T01:39:35;5.93;;;2.47;;
71253;SDS011;59019;47.638;18.966;2024-02-04T01:42:01;5.63;;;2.43;;
71253;SDS011;59019;47.638;18.966;2024-02-04T01:44:27;4.80;;;2.00;;
71253;SDS011;59019;47.638;18.966;2024-02-04T01:46:54;5.93;;;2.30;;
71253;SDS011;59019;47.638;18.966;2024-02-04T01:49:20;6.00;;;2.55;;
71253;SDS011;59019;47.638;18.966;2024-02-04T01:51:47;4.72;;;2.00;;
71253;SDS011;59019;47.638;18.966;2024-02-04T01:54:13;5.57;;;2.40;;
71253;SDS011;59019;47.638;18.966;2024-02-04T01:56:40;5.07;;;2.17;;
71253;SDS011;59019;47.638;18.966;2024-02-04T01:59:07;4.63;;;2.20;;
71253;SDS011;59019;47.638;18.966;2024-02-04T02:01:33;4.70;;;2.03;;
71253;SDS011;59019;47.638;18.966;2024-02-04T02:04:00;6.05;;;2.35;;
71253;SDS011;59019;47.638;18.966;2024-02-04T02:06:28;4.10;;;1.95;;
71253;SDS011;59019;47.638;18.966;2024-02-04T02:08:54;4.20;;;1.80;;
71253;SDS011;59019;47.638;18.966;2024-02-04T02:11:33;6.53;;;2.50;;
71253;SDS011;59019;47.638;18.966;2024-02-04T02:14:20;4.50;;;1.90;;
71253;SDS011;59019;47.638;18.966;2024-02-04T02:16:52;4.90;;;2.03;;
71253;SDS011;59019;47.638;18.966;2024-02-04T02:22:26;4.70;;;2.10;;
71253;SDS011;59019;47.638;18.966;2024-02-04T02:24:55;5.45;;;2.70;;
71253;SDS011;59019;47.638;18.966;2024-02-04T02:27:23;5.23;;;2.57;;
71253;SDS011;59019;47.638;18.966;2024-02-04T02:29:49;5.82;;;2.40;;
71253;SDS011;59019;47.638;18.966;2024-02-04T02:32:15;4.90;;;2.20;;
71253;SDS011;59019;47.638;18.966;2024-02-04T02:34:47;6.03;;;2.75;;
71253;SDS011;59019;47.638;18.966;2024-02-04T02:37:20;4.68;;;2.38;;
71253;SDS011;59019;47.638;18.966;2024-02-04T02:39:58;4.82;;;2.25;;
71253;SDS011;59019;47.638;18.966;2024-02-04T02:42:31;5.57;;;2.70;;
71253;SDS011;59019;47.638;18.966;2024-02-04T02:44:59;5.07;;;2.50;;
71253;SDS011;59019;47.638;18.966;2024-02-04T02:47:26;6.70;;;2.90;;
71253;SDS011;59019;47.638;18.966;2024-02-04T02:49:54;5.32;;;2.70;;
71253;SDS011;59019;47.638;18.966;2024-02-04T02:52:21;5.90;;;2.80;;
71253;SDS011;59019;47.638;18.966;2024-02-04T02:54:47;9.00;;;4.22;;
71253;SDS011;59019;47.638;18.966;2024-02-04T02:57:13;4.68;;;2.50;;
71253;SDS011;59019;47.638;18.966;2024-02-04T02:59:40;7.53;;;3.40;;
71253;SDS011;59019;47.638;18.966;2024-02-04T03:02:06;7.43;;;3.42;;
71253;SDS011;59019;47.638;18.966;2024-02-04T03:04:33;4.15;;;2.08;;
71253;SDS011;59019;47.638;18.966;2024-02-04T03:06:59;11.40;;;4.75;;
71253;SDS011;59019;47.638;18.966;2024-02-04T03:09:25;12.67;;;5.10;;
71253;SDS011;59019;47.638;18.966;2024-02-04T03:11:51;4.32;;;2.20;;
71253;SDS011;59019;47.638;18.966;2024-02-04T03:14:18;7.53;;;3.40;;
71253;SDS011;59019;47.638;18.966;2024-02-04T03:16:45;5.55;;;2.85;;
71253;SDS011;59019;47.638;18.966;2024-02-04T03:19:11;7.35;;;3.97;;
71253;SDS011;59019;47.638;18.966;2024-02-04T03:21:38;6.50;;;3.63;;
71253;SDS011;59019;47.638;18.966;2024-02-04T03:24:04;7.63;;;4.18;;
71253;SDS011;59019;47.638;18.966;2024-02-04T03:26:31;10.60;;;6.38;;
71253;SDS011;59019;47.638;18.966;2024-02-04T03:28:57;11.10;;;6.70;;
71253;SDS011;59019;47.638;18.966;2024-02-04T03:31:24;5.83;;;3.47;;
71253;SDS011;59019;47.638;18.966;2024-02-04T03:33:50;9.15;;;5.70;;
71253;SDS011;59019;47.638;18.966;2024-02-04T03:36:18;9.38;;;6.55;;
71253;SDS011;59019;47.638;18.966;2024-02-04T03:38:45;7.50;;;5.13;;
71253;SDS011;59019;47.638;18.966;2024-02-04T03:41:11;6.32;;;4.03;;
71253;SDS011;59019;47.638;18.966;2024-02-04T03:43:37;7.18;;;5.25;;
71253;SDS011;59019;47.638;18.966;2024-02-04T03:46:04;9.70;;;6.45;;
71253;SDS011;59019;47.638;18.966;2024-02-04T03:48:30;8.63;;;4.97;;
71253;SDS011;59019;47.638;18.966;2024-02-04T03:50:58;6.80;;;4.18;;
71253;SDS011;59019;47.638;18.966;2024-02-04T03:53:24;11.85;;;8.55;;
71253;SDS011;59019;47.638;18.966;2024-02-04T03:55:51;6.47;;;4.13;;
71253;SDS011;59019;47.638;18.966;2024-02-04T03:58:19;9.10;;;6.10;;
71253;SDS011;59019;47.638;18.966;2024-02-04T04:00:54;9.30;;;5.05;;
71253;SDS011;59019;47.638;18.966;2024-02-04T04:03:24;7.33;;;4.50;;
71253;SDS011;59019;47.638;18.966;2024-02-04T04:05:52;7.72;;;5.45;;
71253;SDS011;59019;47.638;18.966;2024-02-04T04:08:18;13.07;;;6.72;;
71253;SDS011;59019;47.638;18.966;2024-02-04T04:10:45;10.77;;;7.30;;
71253;SDS011;59019;47.638;18.966;2024-02-04T04:13:11;9.55;;;5.45;;
71253;SDS011;59019;47.638;18.966;2024-02-04T04:15:37;12.02;;;6.10;;
71253;SDS011;59019;47.638;18.966;2024-02-04T04:18:03;7.90;;;4.53;;
71253;SDS011;59019;47.638;18.966;2024-02-04T04:20:40;6.43;;;4.00;;
71253;SDS011;59019;47.638;18.966;2024-02-04T04:23:07;6.15;;;4.10;;
71253;SDS011;59019;47.638;18.966;2024-02-04T04:25:33;6.35;;;4.28;;
71253;SDS011;59019;47.638;18.966;2024-02-04T04:27:59;6.07;;;4.32;;
71253;SDS011;59019;47.638;18.966;2024-02-04T04:30:25;7.17;;;4.60;;
71253;SDS011;59019;47.638;18.966;2024-02-04T04:32:52;6.90;;;4.50;;
71253;SDS011;59019;47.638;18.966;2024-02-04T04:35:18;7.03;;;4.40;;
71253;SDS011;59019;47.638;18.966;2024-02-04T04:37:45;7.13;;;4.50;;
71253;SDS011;59019;47.638;18.966;2024-02-04T04:40:12;6.43;;;4.50;;
71253;SDS011;59019;47.638;18.966;2024-02-04T04:42:38;6.43;;;4.50;;
71253;SDS011;59019;47.638;18.966;2024-02-04T04:45:09;6.47;;;4.63;;
71253;SDS011;59019;47.638;18.966;2024-02-04T04:47:36;7.00;;;4.60;;
71253;SDS011;59019;47.638;18.966;2024-02-04T04:50:03;6.97;;;4.57;;
71253;SDS011;59019;47.638;18.966;2024-02-04T04:52:32;7.03;;;4.45;;
71253;SDS011;59019;47.638;18.966;2024-02-04T04:54:58;6.13;;;4.25;;
71253;SDS011;59019;47.638;18.966;2024-02-04T04:57:24;6.27;;;4.33;;
71253;SDS011;59019;47.638;18.966;2024-02-04T04:59:50;6.97;;;4.30;;
71253;SDS011;59019;47.638;18.966;2024-02-04T05:02:16;6.73;;;4.33;;
71253;SDS011;59019;47.638;18.966;2024-02-04T05:04:43;6.90;;;4.50;;
71253;SDS011;59019;47.638;18.966;2024-02-04T05:07:29;6.47;;;4.65;;
71253;SDS011;59019;47.638;18.966;2024-02-04T05:09:56;7.05;;;4.10;;
71253;SDS011;59019;47.638;18.966;2024-02-04T05:12:22;6.40;;;4.27;;
71253;SDS011;59019;47.638;18.966;2024-02-04T05:14:49;6.70;;;4.50;;
71253;SDS011;59019;47.638;18.966;2024-02-04T05:17:15;5.90;;;4.00;;
71253;SDS011;59019;47.638;18.966;2024-02-04T05:19:41;6.22;;;4.20;;
71253;SDS011;59019;47.638;18.966;2024-02-04T05:22:08;6.82;;;4.22;;
71253;SDS011;59019;47.638;18.966;2024-02-04T05:24:34;6.47;;;4.10;;
71253;SDS011;59019;47.638;18.966;2024-02-04T05:27:03;5.57;;;3.63;;
71253;SDS011;59019;47.638;18.966;2024-02-04T05:29:31;5.33;;;3.43;;
71253;SDS011;59019;47.638;18.966;2024-02-04T05:31:57;5.77;;;3.80;;
71253;SDS011;59019;47.638;18.966;2024-02-04T05:34:22;5.47;;;3.67;;
71253;SDS011;59019;47.638;18.966;2024-02-04T05:36:49;5.45;;;3.53;;
71253;SDS011;59019;47.638;18.966;2024-02-04T05:39:18;8.70;;;4.78;;
71253;SDS011;59019;47.638;18.966;2024-02-04T05:41:48;6.32;;;4.30;;
71253;SDS011;59019;47.638;18.966;2024-02-04T05:44:17;5.88;;;3.40;;
71253;SDS011;59019;47.638;18.966;2024-02-04T05:46:44;5.82;;;3.90;;
71253;SDS011;59019;47.638;18.966;2024-02-04T05:49:11;5.55;;;3.50;;
71253;SDS011;59019;47.638;18.966;2024-02-04T05:51:41;9.25;;;6.32;;
71253;SDS011;59019;47.638;18.966;2024-02-04T05:54:08;5.55;;;3.80;;
71253;SDS011;59019;47.638;18.966;2024-02-04T05:56:38;6.05;;;4.10;;
71253;SDS011;59019;47.638;18.966;2024-02-04T05:59:04;5.60;;;3.70;;
71253;SDS011;59019;47.638;18.966;2024-02-04T06:01:30;5.65;;;3.50;;
71253;SDS011;59019;47.638;18.966;2024-02-04T06:03:58;5.60;;;3.47;;
71253;SDS011;59019;47.638;18.966;2024-02-04T06:06:24;5.88;;;3.72;;
71253;SDS011;59019;47.638;18.966;2024-02-04T06:08:51;6.50;;;4.05;;
71253;SDS011;59019;47.638;18.966;2024-02-04T06:11:18;5.15;;;3.50;;
71253;SDS011;59019;47.638;18.966;2024-02-04T06:13:44;5.30;;;3.63;;
71253;SDS011;59019;47.638;18.966;2024-02-04T06:16:29;5.20;;;3.40;;
71253;SDS011;59019;47.638;18.966;2024-02-04T06:18:56;5.43;;;3.72;;
71253;SDS011;59019;47.638;18.966;2024-02-04T06:21:23;7.10;;;4.18;;
71253;SDS011;59019;47.638;18.966;2024-02-04T06:23:49;7.18;;;4.90;;
71253;SDS011;59019;47.638;18.966;2024-02-04T06:26:18;5.57;;;3.50;;
71253;SDS011;59019;47.638;18.966;2024-02-04T06:28:49;6.43;;;4.47;;
71253;SDS011;59019;47.638;18.966;2024-02-04T06:31:16;5.53;;;3.80;;
71253;SDS011;59019;47.638;18.966;2024-02-04T06:33:42;5.10;;;3.25;;
71253;SDS011;59019;47.638;18.966;2024-02-04T06:36:08;5.20;;;3.50;;
71253;SDS011;59019;47.638;18.966;2024-02-04T06:38:35;5.07;;;3.50;;
71253;SDS011;59019;47.638;18.966;2024-02-04T06:41:02;5.20;;;3.22;;
71253;SDS011;59019;47.638;18.966;2024-02-04T06:43:29;5.63;;;3.85;;
71253;SDS011;59019;47.638;18.966;2024-02-04T06:45:55;5.53;;;3.27;;
71253;SDS011;59019;47.638;18.966;2024-02-04T06:48:21;8.00;;;4.57;;
71253;SDS011;59019;47.638;18.966;2024-02-04T06:50:48;7.50;;;3.92;;
71253;SDS011;59019;47.638;18.966;2024-02-04T06:53:14;5.70;;;3.20;;
71253;SDS011;59019;47.638;18.966;2024-02-04T06:55:40;7.00;;;3.40;;
71253;SDS011;59019;47.638;18.966;2024-02-04T06:58:07;8.32;;;3.95;;
71253;SDS011;59019;47.638;18.966;2024-02-04T07:00:33;4.82;;;3.10;;
71253;SDS011;59019;47.638;18.966;2024-02-04T07:03:00;5.32;;;2.88;;
71253;SDS011;59019;47.638;18.966;2024-02-04T07:05:26;5.22;;;3.00;;
71253;SDS011;59019;47.638;18.966;2024-02-04T07:07:53;6.68;;;3.88;;
71253;SDS011;59019;47.638;18.966;2024-02-04T07:10:19;6.13;;;3.75;;
71253;SDS011;59019;47.638;18.966;2024-02-04T07:12:45;4.82;;;2.85;;
71253;SDS011;59019;47.638;18.966;2024-02-04T07:15:12;7.15;;;4.05;;
71253;SDS011;59019;47.638;18.966;2024-02-04T07:17:38;4.50;;;2.75;;
71253;SDS011;59019;47.638;18.966;2024-02-04T07:20:04;5.30;;;3.10;;
71253;SDS011;59019;47.638;18.966;2024-02-04T07:22:33;4.63;;;2.90;;
71253;SDS011;59019;47.638;18.966;2024-02-04T07:25:00;5.18;;;2.60;;
71253;SDS011;59019;47.638;18.966;2024-02-04T07:27:29;4.85;;;2.67;;
71253;SDS011;59019;47.638;18.966;2024-02-04T07:29:56;4.77;;;2.67;;
71253;SDS011;59019;47.638;18.966;2024-02-04T07:32:23;6.10;;;3.15;;
71253;SDS011;59019;47.638;18.966;2024-02-04T07:34:49;4.82;;;2.80;;
71253;SDS011;59019;47.638;18.966;2024-02-04T07:37:16;5.10;;;2.90;;
71253;SDS011;59019;47.638;18.966;2024-02-04T07:39:43;4.15;;;2.55;;
71253;SDS011;59019;47.638;18.966;2024-02-04T07:42:09;5.60;;;3.40;;
71253;SDS011;59019;47.638;18.966;2024-02-04T07:44:39;6.13;;;3.30;;
71253;SDS011;59019;47.638;18.966;2024-02-04T07:47:06;4.70;;;2.60;;
71253;SDS011;59019;47.638;18.966;2024-02-04T07:49:32;12.35;;;5.65;;
71253;SDS011;59019;47.638;18.966;2024-02-04T07:51:59;6.63;;;3.40;;
71253;SDS011;59019;47.638;18.966;2024-02-04T07:54:25;7.90;;;4.40;;
71253;SDS011;59019;47.638;18.966;2024-02-04T07:56:52;8.05;;;4.13;;
71253;SDS011;59019;47.638;18.966;2024-02-04T07:59:18;9.45;;;4.75;;
71253;SDS011;59019;47.638;18.966;2024-02-04T08:01:44;11.35;;;5.03;;
71253;SDS011;59019;47.638;18.966;2024-02-04T08:04:11;15.52;;;5.57;;
71253;SDS011;59019;47.638;18.966;2024-02-04T08:06:38;4.30;;;2.50;;
71253;SDS011;59019;47.638;18.966;2024-02-04T08:09:04;10.48;;;5.30;;
71253;SDS011;59019;47.638;18.966;2024-02-04T08:11:30;7.90;;;4.37;;
71253;SDS011;59019;47.638;18.966;2024-02-04T08:13:56;9.73;;;5.05;;
71253;SDS011;59019;47.638;18.966;2024-02-04T08:16:22;5.22;;;3.38;;
71253;SDS011;59019;47.638;18.966;2024-02-04T08:18:48;11.70;;;5.38;;
71253;SDS011;59019;47.638;18.966;2024-02-04T08:21:15;5.95;;;3.00;;
71253;SDS011;59019;47.638;18.966;2024-02-04T08:23:41;6.00;;;3.35;;
71253;SDS011;59019;47.638;18.966;2024-02-04T08:26:07;8.27;;;4.13;;
71253;SDS011;59019;47.638;18.966;2024-02-04T08:28:34;5.90;;;3.28;;
71253;SDS011;59019;47.638;18.966;2024-02-04T08:31:01;6.90;;;4.20;;
71253;SDS011;59019;47.638;18.966;2024-02-04T08:33:26;7.57;;;4.97;;
71253;SDS011;59019;47.638;18.966;2024-02-04T08:35:52;12.13;;;6.05;;
71253;SDS011;59019;47.638;18.966;2024-02-04T08:38:19;9.02;;;4.80;;
71253;SDS011;59019;47.638;18.966;2024-02-04T08:40:45;6.55;;;3.45;;
71253;SDS011;59019;47.638;18.966;2024-02-04T08:43:15;6.75;;;3.97;;
71253;SDS011;59019;47.638;18.966;2024-02-04T08:45:41;5.43;;;3.30;;
71253;SDS011;59019;47.638;18.966;2024-02-04T08:48:08;4.30;;;2.60;;
71253;SDS011;59019;47.638;18.966;2024-02-04T08:50:35;6.00;;;3.50;;
71253;SDS011;59019;47.638;18.966;2024-02-04T08:53:02;4.95;;;3.20;;
71253;SDS011;59019;47.638;18.966;2024-02-04T08:55:29;5.30;;;3.33;;
71253;SDS011;59019;47.638;18.966;2024-02-04T08:57:55;4.87;;;2.63;;
71253;SDS011;59019;47.638;18.966;2024-02-04T09:00:22;4.63;;;2.60;;
71253;SDS011;59019;47.638;18.966;2024-02-04T09:02:49;4.25;;;2.30;;
71253;SDS011;59019;47.638;18.966;2024-02-04T09:05:19;6.85;;;3.80;;
71253;SDS011;59019;47.638;18.966;2024-02-04T09:07:45;5.40;;;3.00;;
71253;SDS011;59019;47.638;18.966;2024-02-04T09:10:12;4.17;;;2.10;;
71253;SDS011;59019;47.638;18.966;2024-02-04T09:12:38;8.20;;;3.25;;
71253;SDS011;59019;47.638;18.966;2024-02-04T09:15:05;8.50;;;3.53;;
71253;SDS011;59019;47.638;18.966;2024-02-04T09:17:35;11.30;;;4.07;;
71253;SDS011;59019;47.638;18.966;2024-02-04T09:20:00;31.00;;;10.77;;
71253;SDS011;59019;47.638;18.966;2024-02-04T09:22:27;19.63;;;8.57;;
71253;SDS011;59019;47.638;18.966;2024-02-04T09:24:54;4.88;;;2.40;;
71253;SDS011;59019;47.638;18.966;2024-02-04T09:27:20;7.43;;;3.28;;
71253;SDS011;59019;47.638;18.966;2024-02-04T09:29:47;7.95;;;3.15;;
71253;SDS011;59019;47.638;18.966;2024-02-04T09:32:14;7.35;;;2.90;;
71253;SDS011;59019;47.638;18.966;2024-02-04T09:34:40;4.25;;;1.85;;
71253;SDS011;59019;47.638;18.966;2024-02-04T09:37:07;3.77;;;1.73;;
71253;SDS011;59019;47.638;18.966;2024-02-04T09:39:33;5.82;;;2.88;;
71253;SDS011;59019;47.638;18.966;2024-02-04T09:42:00;7.63;;;3.17;;
71253;SDS011;59019;47.638;18.966;2024-02-04T09:44:27;6.47;;;2.50;;
71253;SDS011;59019;47.638;18.966;2024-02-04T09:46:53;3.97;;;1.73;;
71253;SDS011;59019;47.638;18.966;2024-02-04T09:49:21;6.80;;;2.70;;
71253;SDS011;59019;47.638;18.966;2024-02-04T09:51:47;4.80;;;1.92;;
71253;SDS011;59019;47.638;18.966;2024-02-04T09:54:14;4.15;;;1.55;;
71253;SDS011;59019;47.638;18.966;2024-02-04T09:56:41;7.95;;;3.42;;
71253;SDS011;59019;47.638;18.966;2024-02-04T09:59:11;3.50;;;1.60;;
71253;SDS011;59019;47.638;18.966;2024-02-04T10:01:38;3.83;;;1.80;;
71253;SDS011;59019;47.638;18.966;2024-02-04T10:04:04;5.38;;;1.67;;
71253;SDS011;59019;47.638;18.966;2024-02-04T10:06:30;6.10;;;2.20;;
71253;SDS011;59019;47.638;18.966;2024-02-04T10:09:00;4.10;;;1.90;;
71253;SDS011;59019;47.638;18.966;2024-02-04T10:11:27;3.60;;;1.60;;
71253;SDS011;59019;47.638;18.966;2024-02-04T10:13:53;5.40;;;2.45;;
71253;SDS011;59019;47.638;18.966;2024-02-04T10:16:20;6.57;;;2.38;;
71253;SDS011;59019;47.638;18.966;2024-02-04T10:18:47;4.90;;;1.80;;
71253;SDS011;59019;47.638;18.966;2024-02-04T10:21:19;4.75;;;1.90;;
71253;SDS011;59019;47.638;18.966;2024-02-04T10:23:49;9.82;;;2.95;;
71253;SDS011;59019;47.638;18.966;2024-02-04T10:26:16;5.93;;;2.40;;
71253;SDS011;59019;47.638;18.966;2024-02-04T10:28:52;5.05;;;2.20;;
71253;SDS011;59019;47.638;18.966;2024-02-04T10:31:22;4.90;;;2.60;;
71253;SDS011;59019;47.638;18.966;2024-02-04T10:34:07;3.40;;;1.50;;
71253;SDS011;59019;47.638;18.966;2024-02-04T10:36:45;4.55;;;1.88;;
71253;SDS011;59019;47.638;18.966;2024-02-04T10:39:14;3.70;;;1.40;;
71253;SDS011;59019;47.638;18.966;2024-02-04T10:42:02;3.50;;;1.33;;
71253;SDS011;59019;47.638;18.966;2024-02-04T10:44:49;3.28;;;1.30;;
71253;SDS011;59019;47.638;18.966;2024-02-04T10:47:37;4.35;;;1.20;;
71253;SDS011;59019;47.638;18.966;2024-02-04T10:50:07;3.70;;;1.20;;
71253;SDS011;59019;47.638;18.966;2024-02-04T10:52:38;4.10;;;1.10;;
71253;SDS011;59019;47.638;18.966;2024-02-04T10:55:08;3.65;;;1.38;;
71253;SDS011;59019;47.638;18.966;2024-02-04T10:57:35;3.50;;;1.10;;
71253;SDS011;59019;47.638;18.966;2024-02-04T11:00:19;2.80;;;1.10;;
71253;SDS011;59019;47.638;18.966;2024-02-04T11:03:02;5.50;;;1.95;;
71253;SDS011;59019;47.638;18.966;2024-02-04T11:05:49;3.00;;;1.13;;
71253;SDS011;59019;47.638;18.966;2024-02-04T11:08:38;3.78;;;1.55;;
71253;SDS011;59019;47.638;18.966;2024-02-04T11:11:24;4.20;;;1.77;;
71253;SDS011;59019;47.638;18.966;2024-02-04T11:14:16;3.65;;;1.50;;
71253;SDS011;59019;47.638;18.966;2024-02-04T11:20:30;7.35;;;3.05;;
71253;SDS011;59019;47.638;18.966;2024-02-04T11:26:17;4.65;;;2.50;;
71253;SDS011;59019;47.638;18.966;2024-02-04T11:29:05;5.07;;;2.00;;
71253;SDS011;59019;47.638;18.966;2024-02-04T11:31:51;4.45;;;1.70;;
71253;SDS011;59019;47.638;18.966;2024-02-04T11:34:20;4.43;;;1.95;;
71253;SDS011;59019;47.638;18.966;2024-02-04T11:36:48;4.13;;;1.60;;
71253;SDS011;59019;47.638;18.966;2024-02-04T11:39:17;4.85;;;2.60;;
71253;SDS011;59019;47.638;18.966;2024-02-04T11:42:13;6.10;;;2.47;;
71253;SDS011;59019;47.638;18.966;2024-02-04T11:45:08;4.35;;;2.20;;
71253;SDS011;59019;47.638;18.966;2024-02-04T11:47:49;6.10;;;1.80;;
71253;SDS011;59019;47.638;18.966;2024-02-04T11:50:32;4.18;;;2.00;;
71253;SDS011;59019;47.638;18.966;2024-02-04T11:53:06;4.95;;;1.80;;
71253;SDS011;59019;47.638;18.966;2024-02-04T11:55:39;10.10;;;4.10;;
71253;SDS011;59019;47.638;18.966;2024-02-04T11:58:06;4.55;;;2.00;;
71253;SDS011;59019;47.638;18.966;2024-02-04T12:00:33;5.30;;;1.90;;
71253;SDS011;59019;47.638;18.966;2024-02-04T12:03:10;3.60;;;1.20;;
71253;SDS011;59019;47.638;18.966;2024-02-04T12:05:55;3.43;;;1.10;;
71253;SDS011;59019;47.638;18.966;2024-02-04T12:08:40;2.92;;;1.00;;
71253;SDS011;59019;47.638;18.966;2024-02-04T12:11:25;4.77;;;1.80;;
71253;SDS011;59019;47.638;18.966;2024-02-04T12:14:11;3.88;;;1.58;;
71253;SDS011;59019;47.638;18.966;2024-02-04T12:16:59;3.83;;;1.13;;
71253;SDS011;59019;47.638;18.966;2024-02-04T12:19:51;4.50;;;1.70;;
71253;SDS011;59019;47.638;18.966;2024-02-04T12:22:18;2.95;;;1.15;;
71253;SDS011;59019;47.638;18.966;2024-02-04T12:24:45;2.92;;;1.00;;
71253;SDS011;59019;47.638;18.966;2024-02-04T12:27:11;2.53;;;0.88;;
71253;SDS011;59019;47.638;18.966;2024-02-04T12:29:37;3.13;;;1.20;;
71253;SDS011;59019;47.638;18.966;2024-02-04T12:32:18;3.45;;;1.30;;
71253;SDS011;59019;47.638;18.966;2024-02-04T12:34:47;3.92;;;1.40;;
71253;SDS011;59019;47.638;18.966;2024-02-04T12:37:14;5.57;;;2.10;;
71253;SDS011;59019;47.638;18.966;2024-02-04T12:39:59;2.80;;;0.90;;
71253;SDS011;59019;47.638;18.966;2024-02-04T12:42:51;2.55;;;0.90;;
71253;SDS011;59019;47.638;18.966;2024-02-04T12:45:18;8.23;;;2.73;;
71253;SDS011;59019;47.638;18.966;2024-02-04T12:47:49;6.05;;;1.30;;
71253;SDS011;59019;47.638;18.966;2024-02-04T12:50:16;13.53;;;3.53;;
71253;SDS011;59019;47.638;18.966;2024-02-04T12:53:04;14.97;;;3.47;;
71253;SDS011;59019;47.638;18.966;2024-02-04T12:55:35;3.50;;;1.20;;
71253;SDS011;59019;47.638;18.966;2024-02-04T12:58:06;3.00;;;1.10;;
71253;SDS011;59019;47.638;18.966;2024-02-04T13:00:38;4.65;;;1.75;;
71253;SDS011;59019;47.638;18.966;2024-02-04T13:03:06;11.27;;;3.83;;
71253;SDS011;59019;47.638;18.966;2024-02-04T13:05:36;7.33;;;3.00;;
71253;SDS011;59019;47.638;18.966;2024-02-04T13:08:03;5.93;;;2.40;;
71253;SDS011;59019;47.638;18.966;2024-02-04T13:10:31;5.15;;;2.00;;
71253;SDS011;59019;47.638;18.966;2024-02-04T13:13:21;5.20;;;2.00;;
71253;SDS011;59019;47.638;18.966;2024-02-04T13:15:49;5.85;;;2.40;;
71253;SDS011;59019;47.638;18.966;2024-02-04T13:18:20;4.78;;;1.80;;
71253;SDS011;59019;47.638;18.966;2024-02-04T13:20:46;3.60;;;1.27;;
71253;SDS011;59019;47.638;18.966;2024-02-04T13:23:14;3.70;;;1.10;;
71253;SDS011;59019;47.638;18.966;2024-02-04T13:25:40;4.10;;;1.48;;
71253;SDS011;59019;47.638;18.966;2024-02-04T13:28:07;16.10;;;5.57;;
71253;SDS011;59019;47.638;18.966;2024-02-04T13:30:38;23.92;;;9.82;;
71253;SDS011;59019;47.638;18.966;2024-02-04T13:33:05;9.45;;;1.83;;
71253;SDS011;59019;47.638;18.966;2024-02-04T13:35:32;10.82;;;3.00;;
71253;SDS011;59019;47.638;18.966;2024-02-04T13:38:02;9.30;;;2.50;;
71253;SDS011;59019;47.638;18.966;2024-02-04T13:40:33;8.52;;;2.25;;
71253;SDS011;59019;47.638;18.966;2024-02-04T13:42:59;10.35;;;2.70;;
71253;SDS011;59019;47.638;18.966;2024-02-04T13:45:25;24.95;;;6.93;;
71253;SDS011;59019;47.638;18.966;2024-02-04T13:47:52;16.90;;;6.72;;
71253;SDS011;59019;47.638;18.966;2024-02-04T13:50:18;3.38;;;1.20;;
71253;SDS011;59019;47.638;18.966;2024-02-04T13:52:45;9.45;;;2.63;;
71253;SDS011;59019;47.638;18.966;2024-02-04T13:55:11;5.32;;;2.05;;
71253;SDS011;59019;47.638;18.966;2024-02-04T13:58:00;4.60;;;1.60;;
71253;SDS011;59019;47.638;18.966;2024-02-04T14:00:26;5.85;;;2.20;;
71253;SDS011;59019;47.638;18.966;2024-02-04T14:02:56;5.18;;;2.17;;
71253;SDS011;59019;47.638;18.966;2024-02-04T14:05:41;11.45;;;4.80;;
71253;SDS011;59019;47.638;18.966;2024-02-04T14:08:12;6.32;;;1.98;;
71253;SDS011;59019;47.638;18.966;2024-02-04T14:10:39;6.32;;;2.33;;
71253;SDS011;59019;47.638;18.966;2024-02-04T14:13:09;5.40;;;1.80;;
71253;SDS011;59019;47.638;18.966;2024-02-04T14:15:37;7.28;;;2.53;;
71253;SDS011;59019;47.638;18.966;2024-02-04T14:18:03;6.60;;;2.03;;
71253;SDS011;59019;47.638;18.966;2024-02-04T14:20:29;6.05;;;3.40;;
71253;SDS011;59019;47.638;18.966;2024-02-04T14:22:55;4.15;;;1.60;;
71253;SDS011;59019;47.638;18.966;2024-02-04T14:25:25;4.33;;;1.53;;
71253;SDS011;59019;47.638;18.966;2024-02-04T14:28:02;4.10;;;1.50;;
71253;SDS011;59019;47.638;18.966;2024-02-04T14:30:29;3.50;;;1.30;;
71253;SDS011;59019;47.638;18.966;2024-02-04T14:32:56;3.23;;;1.00;;
71253;SDS011;59019;47.638;18.966;2024-02-04T14:35:22;2.70;;;0.90;;
71253;SDS011;59019;47.638;18.966;2024-02-04T14:37:49;3.10;;;1.00;;
71253;SDS011;59019;47.638;18.966;2024-02-04T14:40:22;3.90;;;0.90;;
71253;SDS011;59019;47.638;18.966;2024-02-04T14:43:07;3.60;;;1.30;;
71253;SDS011;59019;47.638;18.966;2024-02-04T14:45:34;4.35;;;1.50;;
71253;SDS011;59019;47.638;18.966;2024-02-04T14:48:17;3.90;;;1.52;;
71253;SDS011;59019;47.638;18.966;2024-02-04T14:50:43;3.90;;;1.20;;
71253;SDS011;59019;47.638;18.966;2024-02-04T14:53:28;3.53;;;1.10;;
71253;SDS011;59019;47.638;18.966;2024-02-04T14:55:57;3.40;;;1.00;;